Share

Douglas, WY

Converse County (KDGW) Elev 4928 ft | 42.80 °N, 105.38 °W | Change Station

Current weather conditions updated 54 minutes ago

Clear
Clear
70 °F
Feels Like 70 °F
N
20
Wind Variable Wind from West
Gusts 25 mph
Sunrise 6:11 AM
Sunset 7:50 PM
Moon Waning Gibbous

Today is forecast to be Warmer than yesterday.

Pressure 29.91 in
Visibility 10.0 miles
Clouds Clear
Dew Point 29 °F
Humidity 22%
Rainfall 0.00 in
Snow Depth Not available.
UV 9 out of 16
Pollen 10.80 out of 12
Air Quality Not available.
Flu Activity Sporadic
METAR KDGW 201753Z AUTO 28017G22KT 10SM CLR 21/M02 A3003 RMK AO2 SLP128 T02111017 10211 20017 51003

More Conditions Fewer Conditions

Pressure 29.91 in
Visibility 10.0 miles
Clouds Clear
Dew Point 29 °F
Humidity 22%
Rainfall 0.00 in
Snow Depth Not available.
UV 9 out of 16
Pollen 10.80 out of 12
Air Quality Not available.
Flu Activity Sporadic
METAR KDGW 201753Z AUTO 28017G22KT 10SM CLR 21/M02 A3003 RMK AO2 SLP128 T02111017 10211 20017 51003

More Conditions Fewer Conditions

10-Day Weather Forecast

Almanac

Astronomy

Apr. 20, 2014 Rise Set
Actual Time 6:11 AM MDT 7:50 PM MDT
Civil Twilight 5:42 AM MDT 8:20 PM MDT
Nautical Twilight 5:05 AM MDT 8:56 PM MDT
Astronomical Twilight 4:27 AM MDT 9:35 PM MDT
Moon 12:35 AM MDT 10:32 AM MDT
Length of Visible Light 14h 38m
Length of Day
13h 38m
Tomorrow will be 2m 44s longer.
Waning Gibbous, 67% of the Moon is Illuminated
Today
Waning Gibbous
Apr 22
Last Quarter
Apr 29
New
May 6
First Quarter
May 14
Full

Today's Extremes

State Highs State Lows

Community

  • Columbine
    Columbine
  • Easter Sunrise
    Easter Sunrise
  • Easter Eve - The Promise - Lake Palestine, TX
    Easter Eve - The Promise - Lake Palestine, TX
  • Happy Easter
    Happy Easter
  • EARLY FOGGY MORNING
    EARLY FOGGY MORNING

WunderPhotos

Upload Photos

1,703,303 photos uploaded!

WunderBlogs® & News

Nearby

Snow Depth

Station Depth Elevation
Reno Hill 56 in 8500 ft
Laprele Creek 23 in 8375 ft
Windy Peak 24 in 7900 ft
Casper Mountain 49 in 7850 ft
Bear Trap Meadow 32 in 8200 ft

Coastal Water Temperatures

Place Temperature
No Stations Reporting

Earthquake Activity

City Distance Mag. Time & Date
No recent earthquake activity has been reported nearby.
Minimum magnitude displayed is 2.5.

Nearby Weather Stations

Station Location Temp. Heat Index Dew Point Humidity Wind Precip. Elev Updated Type
Converse County Flyers, Douglas, WY 71.4 °F 76 °F 42 °F 25% West  at  7.6 mph 0.00 in / hr 4839 ft 12:40 PM MDT Normal
HADS NORTH PLATTE RIVER NEAR GLEN ROC WY, Glenrock, WY 68 °F - - - North  at  - 0.00 in / hr 4948 ft 11:30 AM MDT MADIS
North of Rolling Hills WY, Glenrock, WY 68.9 °F - 25 °F 19% WNW  at  17.0 mph 0.00 in / hr 5421 ft 12:46 PM MDT Rapid Fire

Show More Stations Show Fewer Stations

What do you think?

We're not finished. Please let us know what you like, what you don't like, and what you are still missing.